createdAt,value
2019-04-11T00:00:08.960Z,8.32
2019-04-11T00:01:02.323Z,8.25
2019-04-11T00:02:18.103Z,8.26
2019-04-11T00:03:22.512Z,8.22
2019-04-11T00:04:24.221Z,8.22
2019-04-11T00:05:32.151Z,8.18
2019-04-11T00:06:39.331Z,8.21
2019-04-11T00:07:41.075Z,8.18
2019-04-11T00:08:52.866Z,8.17
2019-04-11T00:09:49.283Z,8.18
2019-04-11T00:11:04.453Z,8.20
2019-04-11T00:12:04.657Z,8.17
2019-04-11T00:13:18.864Z,8.14
2019-04-11T00:14:12.157Z,8.17
2019-04-11T00:15:18.397Z,8.08
2019-04-11T00:16:19.506Z,8.00
2019-04-11T00:17:26.195Z,7.96
2019-04-11T00:18:38.785Z,7.93
2019-04-11T00:19:38.185Z,7.92
2019-04-11T00:20:44.437Z,7.87
2019-04-11T00:21:55.138Z,7.81
2019-04-11T00:22:59.702Z,7.85
2019-04-11T00:24:07.917Z,7.78
2019-04-11T00:25:01.059Z,7.62
2019-04-11T00:26:11.718Z,7.67
2019-04-11T00:27:12.869Z,7.66
2019-04-11T00:28:31.905Z,7.58
2019-04-11T00:29:24.645Z,7.63
2019-04-11T00:30:34.783Z,7.55
2019-04-11T00:31:47.978Z,7.53
2019-04-11T00:32:49.737Z,7.52
2019-04-11T00:33:54.363Z,7.42
2019-04-11T00:35:07.044Z,7.42
2019-04-11T00:36:04.246Z,7.40
2019-04-11T00:37:10.979Z,7.29
2019-04-11T00:38:15.969Z,7.27
2019-04-11T00:39:19.477Z,7.32
2019-04-11T00:40:26.992Z,7.29
2019-04-11T00:41:27.997Z,7.23
2019-04-11T00:42:28.523Z,7.17
2019-04-11T00:43:39.105Z,7.12
2019-04-11T00:44:39.009Z,7.05
2019-04-11T00:45:51.942Z,7.04
2019-04-11T00:46:56.420Z,6.98
2019-04-11T00:48:03.775Z,6.86
2019-04-11T00:49:18.691Z,6.84
2019-04-11T00:50:10.704Z,6.79
2019-04-11T00:51:17.305Z,6.69
2019-04-11T00:52:25.367Z,6.76
2019-04-11T00:53:30.535Z,6.79
2019-04-11T00:54:35.970Z,6.69
2019-04-11T00:55:37.713Z,6.59
2019-04-11T00:56:40.393Z,6.59
2019-04-11T00:57:53.017Z,6.56
2019-04-11T00:59:02.432Z,6.59
2019-04-11T01:00:00.637Z,6.50
2019-04-11T01:01:05.499Z,6.54
2019-04-11T01:02:17.684Z,6.58
2019-04-11T01:03:18.521Z,6.48
2019-04-11T01:04:26.004Z,6.50
2019-04-11T01:05:31.762Z,6.46
2019-04-11T01:06:43.325Z,6.51
2019-04-11T01:07:47.101Z,6.41
2019-04-11T01:08:53.640Z,6.41
2019-04-11T01:09:50.690Z,6.44
2019-04-11T01:10:57.994Z,6.35
2019-04-11T01:11:58.390Z,6.43
2019-04-11T01:13:11.171Z,6.28
2019-04-11T01:14:13.209Z,6.38
2019-04-11T01:15:19.834Z,6.28
2019-04-11T01:16:29.667Z,6.16
2019-04-11T01:17:46.267Z,6.19
2019-04-11T01:18:46.883Z,6.09
2019-04-11T01:19:57.644Z,6.09
2019-04-11T01:20:48.844Z,6.00
2019-04-11T01:21:44.475Z,5.85
2019-04-11T01:23:04.799Z,5.93
2019-04-11T01:24:01.727Z,5.95
2019-04-11T01:25:06.324Z,5.86
2019-04-11T01:26:23.239Z,5.91
2019-04-11T01:27:36.603Z,5.82
2019-04-11T01:28:36.613Z,5.77
2019-04-11T01:29:31.460Z,5.75
2019-04-11T01:30:36.932Z,5.89
2019-04-11T01:32:02.132Z,5.83
2019-04-11T01:32:58.993Z,5.78
2019-04-11T01:33:49.546Z,5.81
2019-04-11T01:35:23.515Z,5.73
2019-04-11T01:36:16.910Z,5.82
2019-04-11T01:37:15.986Z,5.83
2019-04-11T01:38:23.671Z,5.81
2019-04-11T01:39:43.293Z,5.70
2019-04-11T01:40:29.785Z,5.77
2019-04-11T01:41:45.211Z,5.77
2019-04-11T01:42:51.310Z,5.67
2019-04-11T01:44:07.479Z,5.70
2019-04-11T01:44:47.402Z,5.70
2019-04-11T01:45:55.978Z,5.70
2019-04-11T01:47:27.319Z,5.68
2019-04-11T01:48:17.804Z,5.75
2019-04-11T01:49:32.308Z,5.75
2019-04-11T01:50:26.958Z,5.67
2019-04-11T01:51:31.959Z,5.74
2019-04-11T01:52:48.739Z,5.75
2019-04-11T01:53:48.891Z,5.77
2019-04-11T01:54:54.172Z,5.78
2019-04-11T01:55:52.550Z,5.68
2019-04-11T01:57:06.807Z,5.59
2019-04-11T01:58:00.879Z,5.70
2019-04-11T01:59:11.037Z,5.67
2019-04-11T02:00:18.306Z,5.68
2019-04-11T02:01:18.783Z,5.70
2019-04-11T02:02:26.450Z,5.63
2019-04-11T02:03:45.619Z,5.56
2019-04-11T02:04:34.298Z,5.71
2019-04-11T02:05:35.433Z,5.70
2019-04-11T02:06:45.856Z,5.70
2019-04-11T02:07:47.427Z,5.67
2019-04-11T02:08:59.810Z,5.66
2019-04-11T02:09:56.678Z,5.64
2019-04-11T02:11:17.246Z,5.64
2019-04-11T02:12:02.103Z,5.68
2019-04-11T02:13:27.974Z,5.63
2019-04-11T02:14:39.793Z,5.60
2019-04-11T02:15:34.468Z,5.49
2019-04-11T02:16:32.736Z,5.55
2019-04-11T02:17:44.424Z,5.46
2019-04-11T02:18:45.755Z,5.63
2019-04-11T02:20:06.988Z,5.64
2019-04-11T02:21:11.679Z,5.53
2019-04-11T02:21:58.580Z,5.66
2019-04-11T02:23:21.266Z,5.60
2019-04-11T02:24:09.914Z,5.57
2019-04-11T02:25:08.087Z,5.55
2019-04-11T02:26:29.346Z,5.64
2019-04-11T02:27:32.923Z,5.49
2019-04-11T02:28:32.866Z,5.57
2019-04-11T02:29:58.561Z,5.64
2019-04-11T02:30:52.034Z,5.49
2019-04-11T02:31:50.727Z,5.56
2019-04-11T02:33:00.476Z,5.49
2019-04-11T02:34:06.027Z,5.49
2019-04-11T02:35:08.827Z,5.50
2019-04-11T02:36:11.837Z,5.41
2019-04-11T02:37:29.407Z,5.49
2019-04-11T02:38:24.916Z,5.49
2019-04-11T02:39:31.158Z,5.37
2019-04-11T02:40:32.834Z,5.35
2019-04-11T02:41:37.978Z,5.32
2019-04-11T02:43:01.489Z,5.31
2019-04-11T02:43:55.047Z,5.32
2019-04-11T02:45:03.404Z,5.30
2019-04-11T02:46:17.645Z,5.32
2019-04-11T02:47:16.234Z,5.23
2019-04-11T02:48:24.395Z,5.17
2019-04-11T02:49:45.275Z,5.23
2019-04-11T02:50:27.756Z,5.22
2019-04-11T02:51:34.475Z,5.30
2019-04-11T02:52:51.891Z,5.22
2019-04-11T02:53:40.961Z,5.17
2019-04-11T02:54:47.320Z,5.14
2019-04-11T02:55:54.036Z,5.12
2019-04-11T02:56:59.611Z,5.09
2019-04-11T02:58:10.301Z,5.19
2019-04-11T02:59:21.550Z,5.10
2019-04-11T03:00:24.265Z,5.16
2019-04-11T03:01:58.160Z,5.09
2019-04-11T03:02:52.683Z,5.05
2019-04-11T03:03:56.143Z,5.05
2019-04-11T03:05:00.447Z,5.05
2019-04-11T03:06:02.314Z,4.92
2019-04-11T03:06:51.966Z,5.01
2019-04-11T03:08:15.599Z,5.05
2019-04-11T03:09:33.008Z,5.04
2019-04-11T03:10:37.889Z,4.96
2019-04-11T03:11:30.369Z,4.92
2019-04-11T03:12:43.285Z,4.92
2019-04-11T03:14:03.264Z,4.84
2019-04-11T03:15:28.834Z,4.84
2019-04-11T03:16:38.234Z,4.84
2019-04-11T03:17:27.059Z,4.73
2019-04-11T03:18:33.247Z,4.69
2019-04-11T03:19:59.306Z,4.75
2019-04-11T03:21:54.465Z,4.69
2019-04-11T03:23:44.275Z,4.62
2019-04-11T03:24:53.263Z,4.70
2019-04-11T03:25:32.732Z,4.61
2019-04-11T03:27:40.913Z,4.67
2019-04-11T03:28:46.787Z,4.59
2019-04-11T03:30:07.020Z,4.64
2019-04-11T03:32:04.636Z,4.61
2019-04-11T03:33:32.911Z,4.50
2019-04-11T03:35:45.771Z,4.65
2019-04-11T03:36:27.647Z,4.54
2019-04-11T03:37:25.906Z,4.62
2019-04-11T03:38:04.107Z,4.61
2019-04-11T03:39:32.821Z,4.61
2019-04-11T03:40:48.288Z,4.55
2019-04-11T03:42:17.203Z,4.55
2019-04-11T03:43:15.109Z,4.50
2019-04-11T03:44:20.584Z,4.51
2019-04-11T03:45:44.190Z,4.47
2019-04-11T03:46:40.289Z,4.51
2019-04-11T03:48:05.883Z,4.51
2019-04-11T03:49:12.358Z,4.46
2019-04-11T03:50:29.479Z,4.43
2019-04-11T03:51:25.717Z,4.47
2019-04-11T03:52:30.404Z,4.51
2019-04-11T03:53:41.059Z,4.46
2019-04-11T03:54:40.499Z,4.47
2019-04-11T03:55:43.438Z,4.40
2019-04-11T03:56:43.445Z,4.39
2019-04-11T03:57:37.508Z,4.37
2019-04-11T03:59:03.903Z,4.36
2019-04-11T04:00:06.835Z,4.40
2019-04-11T04:00:52.678Z,4.28
2019-04-11T04:02:20.430Z,4.29
2019-04-11T04:03:20.080Z,4.26
2019-04-11T04:04:21.737Z,4.25
2019-04-11T04:05:19.565Z,4.25
2019-04-11T04:06:25.860Z,4.22
2019-04-11T04:07:31.936Z,4.24
2019-04-11T04:08:39.769Z,4.25
2019-04-11T04:09:58.507Z,4.25
2019-04-11T04:10:56.442Z,4.26
2019-04-11T04:11:51.077Z,4.22
2019-04-11T04:12:49.411Z,4.18
2019-04-11T04:14:10.475Z,4.15
2019-04-11T04:15:10.619Z,4.10
2019-04-11T04:16:18.677Z,4.18
2019-04-11T04:17:23.564Z,4.19
2019-04-11T04:18:32.088Z,4.29
2019-04-11T04:19:32.538Z,4.25
2019-04-11T04:20:30.571Z,4.24
2019-04-11T04:21:46.844Z,4.06
2019-04-11T04:22:50.506Z,4.16
2019-04-11T04:23:56.094Z,4.12
2019-04-11T04:24:56.176Z,4.16
2019-04-11T04:26:07.803Z,4.12
2019-04-11T04:27:13.204Z,4.18
2019-04-11T04:28:15.969Z,4.19
2019-04-11T04:29:25.137Z,4.16
2019-04-11T04:30:24.532Z,4.19
2019-04-11T04:31:28.646Z,4.08
2019-04-11T04:32:32.943Z,4.12
2019-04-11T04:33:33.220Z,4.12
2019-04-11T04:34:42.171Z,4.14
2019-04-11T04:35:49.560Z,4.24
2019-04-11T04:36:47.259Z,4.14
2019-04-11T04:37:56.976Z,4.08
2019-04-11T04:39:12.459Z,4.06
2019-04-11T04:40:36.077Z,4.15
2019-04-11T04:41:22.620Z,4.06
2019-04-11T04:42:31.541Z,4.08
2019-04-11T04:43:29.335Z,4.06
2019-04-11T04:44:38.000Z,4.06
2019-04-11T04:45:49.608Z,4.10
2019-04-11T04:46:58.216Z,4.06
2019-04-11T04:47:56.955Z,4.06
2019-04-11T04:48:58.363Z,4.10
2019-04-11T04:50:06.126Z,4.08
2019-04-11T04:51:05.161Z,4.06
2019-04-11T04:52:22.863Z,4.10
2019-04-11T04:53:20.373Z,4.08
2019-04-11T04:54:22.103Z,4.07
2019-04-11T04:55:25.967Z,4.12
2019-04-11T04:56:31.619Z,4.10
2019-04-11T04:57:33.294Z,4.01
2019-04-11T04:58:46.741Z,4.07
2019-04-11T04:59:53.335Z,4.18
2019-04-11T05:01:01.104Z,4.15
2019-04-11T05:01:59.351Z,4.06
2019-04-11T05:03:09.379Z,4.15
2019-04-11T05:04:04.717Z,4.08
2019-04-11T05:05:14.112Z,4.14
2019-04-11T05:06:26.206Z,4.12
2019-04-11T05:07:30.393Z,4.04
2019-04-11T05:08:30.541Z,4.04
2019-04-11T05:09:47.911Z,4.08
2019-04-11T05:10:46.971Z,4.03
2019-04-11T05:11:52.976Z,4.00
2019-04-11T05:12:51.973Z,4.01
2019-04-11T05:13:51.382Z,4.01
2019-04-11T05:15:16.713Z,4.00
2019-04-11T05:16:18.182Z,3.96
2019-04-11T05:17:19.853Z,4.08
2019-04-11T05:18:23.962Z,4.04
2019-04-11T05:19:25.550Z,4.08
2019-04-11T05:20:19.759Z,4.06
2019-04-11T05:21:31.468Z,4.03
2019-04-11T05:22:49.479Z,4.06
2019-04-11T05:23:55.016Z,4.16
2019-04-11T05:24:58.998Z,4.12
2019-04-11T05:26:05.066Z,4.12
2019-04-11T05:26:56.061Z,4.15
2019-04-11T05:28:13.993Z,4.18
2019-04-11T05:29:09.086Z,4.06
2019-04-11T05:30:23.128Z,4.12
2019-04-11T05:31:27.734Z,4.15
2019-04-11T05:32:35.375Z,4.18
2019-04-11T05:33:39.059Z,4.25
2019-04-11T05:34:44.033Z,4.19
2019-04-11T05:35:40.248Z,4.24
2019-04-11T05:37:02.393Z,4.21
2019-04-11T05:38:03.003Z,4.16
2019-04-11T05:39:12.816Z,4.26
2019-04-11T05:40:17.863Z,4.21
2019-04-11T05:41:21.352Z,4.16
2019-04-11T05:42:27.040Z,4.21
2019-04-11T05:43:37.304Z,4.18
2019-04-11T05:44:45.154Z,4.15
2019-04-11T05:45:50.508Z,4.18
2019-04-11T05:46:50.940Z,4.16
2019-04-11T05:47:59.279Z,4.24
2019-04-11T05:49:00.495Z,4.15
2019-04-11T05:50:11.587Z,4.26
2019-04-11T05:51:20.387Z,4.26
2019-04-11T05:52:19.787Z,4.24
2019-04-11T05:53:27.841Z,4.25
2019-04-11T05:54:23.898Z,4.24
2019-04-11T05:55:21.672Z,4.34
2019-04-11T05:56:37.534Z,4.36
2019-04-11T05:57:46.751Z,4.36
2019-04-11T05:58:53.498Z,4.39
2019-04-11T06:00:05.467Z,4.39
2019-04-11T06:01:05.616Z,4.47
2019-04-11T06:02:27.330Z,4.47
2019-04-11T06:03:23.929Z,4.50
2019-04-11T06:04:30.220Z,4.52
2019-04-11T06:05:10.979Z,4.64
2019-04-11T06:06:25.410Z,4.62
2019-04-11T06:07:53.191Z,4.70
2019-04-11T06:08:39.935Z,4.69
2019-04-11T06:09:54.691Z,4.80
2019-04-11T06:10:56.694Z,4.77
2019-04-11T06:11:58.170Z,4.91
2019-04-11T06:13:18.240Z,4.89
2019-04-11T06:14:49.279Z,5.02
2019-04-11T06:15:51.482Z,4.95
2019-04-11T06:16:51.984Z,5.07
2019-04-11T06:17:46.137Z,5.09
2019-04-11T06:19:02.262Z,5.19
2019-04-11T06:19:57.628Z,5.25
2019-04-11T06:21:17.858Z,5.45
2019-04-11T06:22:58.913Z,5.40
2019-04-11T06:24:20.277Z,5.50
2019-04-11T06:25:55.430Z,5.53
2019-04-11T06:26:41.522Z,5.64
2019-04-11T06:27:57.906Z,5.64
2019-04-11T06:28:40.275Z,5.74
2019-04-11T06:29:58.951Z,5.85
2019-04-11T06:30:56.932Z,5.88
2019-04-11T06:31:55.795Z,5.77
2019-04-11T06:32:54.467Z,5.89
2019-04-11T06:34:03.485Z,6.06
2019-04-11T06:35:13.629Z,6.03
2019-04-11T06:36:30.001Z,6.09
2019-04-11T06:37:07.590Z,6.18
2019-04-11T06:38:42.841Z,6.13
2019-04-11T06:39:29.734Z,6.09
2019-04-11T06:40:35.270Z,6.10
2019-04-11T06:41:50.849Z,6.16
2019-04-11T06:42:49.928Z,6.28
2019-04-11T06:44:04.763Z,6.32
2019-04-11T06:44:54.353Z,6.41
2019-04-11T06:46:13.228Z,6.40
2019-04-11T06:47:17.397Z,6.41
2019-04-11T06:48:29.745Z,6.38
2019-04-11T06:49:42.551Z,6.54
2019-04-11T06:50:27.025Z,6.53
2019-04-11T06:51:39.931Z,6.47
2019-04-11T06:52:49.277Z,6.51
2019-04-11T06:53:53.276Z,6.48
2019-04-11T06:54:49.605Z,6.51
2019-04-11T06:55:55.100Z,6.61
2019-04-11T06:57:07.637Z,6.56
2019-04-11T06:58:15.030Z,6.62
2019-04-11T06:59:07.955Z,6.59
2019-04-11T07:00:18.111Z,6.59
2019-04-11T07:01:20.471Z,6.63
2019-04-11T07:02:32.311Z,6.68
2019-04-11T07:03:32.121Z,6.69
2019-04-11T07:04:49.581Z,6.73
2019-04-11T07:05:51.025Z,6.79
2019-04-11T07:06:39.855Z,6.73
2019-04-11T07:07:57.763Z,6.84
2019-04-11T07:09:07.380Z,6.86
2019-04-11T07:09:58.201Z,6.83
2019-04-11T07:11:17.872Z,6.81
2019-04-11T07:12:20.537Z,6.87
2019-04-11T07:13:20.675Z,6.86
2019-04-11T07:14:22.390Z,6.89
2019-04-11T07:15:25.678Z,6.90
2019-04-11T07:16:40.417Z,6.90
2019-04-11T07:17:40.950Z,6.90
2019-04-11T07:18:50.579Z,6.98
2019-04-11T07:19:47.974Z,6.94
2019-04-11T07:21:00.608Z,7.01
2019-04-11T07:22:02.585Z,7.04
2019-04-11T07:23:07.899Z,7.01
2019-04-11T07:24:16.429Z,7.04
2019-04-11T07:25:23.504Z,7.08
2019-04-11T07:26:22.995Z,7.17
2019-04-11T07:27:23.700Z,7.20
2019-04-11T07:28:37.551Z,7.22
2019-04-11T07:29:48.544Z,7.16
2019-04-11T07:30:52.405Z,7.17
2019-04-11T07:32:00.910Z,7.27
2019-04-11T07:32:59.486Z,7.24
2019-04-11T07:34:08.589Z,7.27
2019-04-11T07:35:15.650Z,7.34
2019-04-11T07:36:20.961Z,7.34
2019-04-11T07:37:32.425Z,7.41
2019-04-11T07:38:27.266Z,7.49
2019-04-11T07:39:31.019Z,7.56
2019-04-11T07:40:35.280Z,7.60
2019-04-11T07:41:49.995Z,7.53
2019-04-11T07:42:49.640Z,7.60
2019-04-11T07:43:50.015Z,7.59
2019-04-11T07:44:55.383Z,7.66
2019-04-11T07:46:04.656Z,7.75
2019-04-11T07:47:18.845Z,7.82
2019-04-11T07:48:19.309Z,7.82
2019-04-11T07:49:35.058Z,7.84
2019-04-11T07:50:19.808Z,7.94
2019-04-11T07:51:28.696Z,7.94
2019-04-11T07:52:49.436Z,8.04
2019-04-11T07:53:46.318Z,8.07
2019-04-11T07:54:47.719Z,8.11
2019-04-11T07:55:44.431Z,8.07
2019-04-11T07:56:54.969Z,8.14
2019-04-11T07:58:08.446Z,8.14
2019-04-11T07:59:05.703Z,8.21
2019-04-11T08:00:08.155Z,8.18
2019-04-11T08:01:21.172Z,8.18
2019-04-11T08:02:20.527Z,8.26
2019-04-11T08:03:32.563Z,8.29
2019-04-11T08:04:33.898Z,8.30
2019-04-11T08:05:40.891Z,8.37
2019-04-11T08:06:46.099Z,8.45
2019-04-11T08:07:51.354Z,8.47
2019-04-11T08:08:53.390Z,8.53
2019-04-11T08:09:59.992Z,8.53
2019-04-11T08:11:04.151Z,8.63
2019-04-11T08:12:13.067Z,8.65
2019-04-11T08:13:17.166Z,8.68
2019-04-11T08:14:27.210Z,8.78
2019-04-11T08:15:31.827Z,8.84
2019-04-11T08:16:32.957Z,8.79
2019-04-11T08:17:43.132Z,8.86
2019-04-11T08:18:46.388Z,8.81
2019-04-11T08:19:57.439Z,8.96
2019-04-11T08:21:03.704Z,9.01
2019-04-11T08:22:00.864Z,8.88
2019-04-11T08:23:07.575Z,9.04
2019-04-11T08:24:14.584Z,8.97
2019-04-11T08:25:25.145Z,9.05
2019-04-11T08:26:24.324Z,9.01
2019-04-11T08:27:48.448Z,9.12
2019-04-11T08:28:35.567Z,9.09
2019-04-11T08:29:48.475Z,9.21
2019-04-11T08:31:01.434Z,9.24
2019-04-11T08:31:56.271Z,9.23
2019-04-11T08:33:02.348Z,9.38
2019-04-11T08:34:07.854Z,9.39
2019-04-11T08:35:12.238Z,9.34
2019-04-11T08:36:19.752Z,9.35
2019-04-11T08:37:23.304Z,9.40
2019-04-11T08:38:40.505Z,9.38
2019-04-11T08:39:35.303Z,9.53
2019-04-11T08:40:45.409Z,9.56
2019-04-11T08:41:53.415Z,9.56
2019-04-11T08:43:00.375Z,9.58
2019-04-11T08:43:57.615Z,9.66
2019-04-11T08:45:10.235Z,9.66
2019-04-11T08:46:10.942Z,9.79
2019-04-11T08:47:22.931Z,9.79
2019-04-11T08:48:37.277Z,9.75
2019-04-11T08:49:39.729Z,9.88
2019-04-11T08:50:36.982Z,9.86
2019-04-11T08:51:51.938Z,9.97
2019-04-11T08:52:44.424Z,9.88
2019-04-11T08:53:46.897Z,10.01
2019-04-11T08:55:10.814Z,10.04
2019-04-11T08:56:08.759Z,9.97
2019-04-11T08:57:17.873Z,10.07
2019-04-11T08:58:47.030Z,10.07
2019-04-11T08:59:41.711Z,10.15
2019-04-11T09:00:48.991Z,10.19
2019-04-11T09:02:04.640Z,10.28
2019-04-11T09:03:01.801Z,10.37
2019-04-11T09:04:15.286Z,10.37
2019-04-11T09:05:17.993Z,10.36
2019-04-11T09:06:08.582Z,10.36
2019-04-11T09:07:22.655Z,10.37
2019-04-11T09:08:49.188Z,10.46
2019-04-11T09:09:51.511Z,10.43
2019-04-11T09:11:17.770Z,10.53
2019-04-11T09:12:14.198Z,10.58
2019-04-11T09:13:13.190Z,10.55
2019-04-11T09:14:14.006Z,10.56
2019-04-11T09:15:21.088Z,10.60
2019-04-11T09:16:39.735Z,10.62
2019-04-11T09:17:26.162Z,10.71
2019-04-11T09:19:27.773Z,10.59
2019-04-11T09:20:28.078Z,10.73
2019-04-11T09:21:42.926Z,10.74
2019-04-11T09:22:49.027Z,10.77
2019-04-11T09:23:38.666Z,10.74
2019-04-11T09:25:21.259Z,10.78
2019-04-11T09:25:59.348Z,10.83
2019-04-11T09:27:26.796Z,10.83
2019-04-11T09:28:07.545Z,10.84
2019-04-11T09:29:46.285Z,10.91
2019-04-11T09:30:37.360Z,11.02
2019-04-11T09:31:49.108Z,10.96
2019-04-11T09:32:44.492Z,10.89
2019-04-11T09:33:39.596Z,11.06
2019-04-11T09:34:59.795Z,11.01
2019-04-11T09:35:52.443Z,11.06
2019-04-11T09:36:59.105Z,11.02
2019-04-11T09:38:13.877Z,11.07
2019-04-11T09:39:06.618Z,11.11
2019-04-11T09:40:07.713Z,11.07
2019-04-11T09:41:20.559Z,11.10
2019-04-11T09:42:30.883Z,11.11
2019-04-11T09:43:38.163Z,11.07
2019-04-11T09:44:28.861Z,11.20
2019-04-11T09:45:52.733Z,11.24
2019-04-11T09:46:56.957Z,11.31
2019-04-11T09:48:07.602Z,11.24
2019-04-11T09:48:55.993Z,11.31
2019-04-11T09:49:58.482Z,11.29
2019-04-11T09:51:05.182Z,11.36
2019-04-11T09:52:12.244Z,11.39
2019-04-11T09:53:16.306Z,11.43
2019-04-11T09:54:30.666Z,11.46
2019-04-11T09:55:29.084Z,11.38
2019-04-11T09:56:43.165Z,11.43
2019-04-11T09:57:41.949Z,11.59
2019-04-11T09:58:45.127Z,11.57
2019-04-11T09:59:42.795Z,11.67
2019-04-11T10:01:01.677Z,11.72
2019-04-11T10:02:04.399Z,11.83
2019-04-11T10:03:10.741Z,11.93
2019-04-11T10:04:14.962Z,11.94
2019-04-11T10:05:09.583Z,12.02
2019-04-11T10:06:21.515Z,12.05
2019-04-11T10:07:30.077Z,12.04
2019-04-11T10:08:26.967Z,12.06
2019-04-11T10:09:38.239Z,12.05
2019-04-11T10:10:43.686Z,12.09
2019-04-11T10:11:50.444Z,12.16
2019-04-11T10:13:00.477Z,12.21
2019-04-11T10:13:57.590Z,12.31
2019-04-11T10:15:00.084Z,12.29
2019-04-11T10:16:04.597Z,12.45
2019-04-11T10:17:10.580Z,12.52
2019-04-11T10:18:21.940Z,12.44
2019-04-11T10:19:31.856Z,12.37
2019-04-11T10:20:30.812Z,12.27
2019-04-11T10:21:31.060Z,12.20
2019-04-11T10:22:36.793Z,12.23
2019-04-11T10:23:45.415Z,12.21
2019-04-11T10:24:50.553Z,12.15
2019-04-11T10:25:55.888Z,12.19
2019-04-11T10:27:02.567Z,12.26
2019-04-11T10:28:05.934Z,12.31
2019-04-11T10:29:31.391Z,12.29
2019-04-11T10:30:17.331Z,12.29
2019-04-11T10:31:24.574Z,12.38
2019-04-11T10:32:21.183Z,12.49
2019-04-11T10:33:45.061Z,12.63
2019-04-11T10:34:44.454Z,12.81
2019-04-11T10:35:44.049Z,12.89
2019-04-11T10:36:53.667Z,13.02
2019-04-11T10:38:06.771Z,13.09
2019-04-11T10:38:57.129Z,13.11
2019-04-11T10:40:04.561Z,13.18
2019-04-11T10:41:06.269Z,13.04
2019-04-11T10:42:11.124Z,13.14
2019-04-11T10:43:20.307Z,13.27
2019-04-11T10:44:29.740Z,13.32
2019-04-11T10:45:36.429Z,13.14
2019-04-11T10:46:47.323Z,13.09
2019-04-11T10:47:47.287Z,13.00
2019-04-11T10:48:52.766Z,12.97
2019-04-11T10:49:58.781Z,12.97
2019-04-11T10:51:10.776Z,12.95
2019-04-11T10:52:16.620Z,13.09
2019-04-11T10:53:16.401Z,13.04
2019-04-11T10:54:11.352Z,13.14
2019-04-11T10:55:27.360Z,13.11
2019-04-11T10:56:32.636Z,13.03
2019-04-11T10:57:40.276Z,13.07
2019-04-11T10:58:46.358Z,12.99
2019-04-11T10:59:47.068Z,12.89
2019-04-11T11:00:59.767Z,12.87
2019-04-11T11:02:07.062Z,12.85
2019-04-11T11:02:53.647Z,13.00
2019-04-11T11:04:15.830Z,12.96
2019-04-11T11:05:13.236Z,12.95
2019-04-11T11:06:29.376Z,12.93
2019-04-11T11:07:26.740Z,12.93
2019-04-11T11:08:23.582Z,12.92
2019-04-11T11:09:30.268Z,12.95
2019-04-11T11:10:40.089Z,12.87
2019-04-11T11:11:52.582Z,12.85
2019-04-11T11:12:40.003Z,12.92
2019-04-11T11:13:54.289Z,12.88
2019-04-11T11:15:07.105Z,12.95
2019-04-11T11:16:02.147Z,13.02
2019-04-11T11:17:15.562Z,13.24
2019-04-11T11:18:35.206Z,13.22
2019-04-11T11:19:46.609Z,13.52
2019-04-11T11:20:34.331Z,13.58
2019-04-11T11:21:49.604Z,13.63
2019-04-11T11:22:46.106Z,13.69
2019-04-11T11:23:54.519Z,13.51
2019-04-11T11:24:54.536Z,13.41
2019-04-11T11:25:54.547Z,13.43
2019-04-11T11:27:18.723Z,13.33
2019-04-11T11:28:17.876Z,13.33
2019-04-11T11:29:24.306Z,13.46
2019-04-11T11:30:10.872Z,13.56
2019-04-11T11:31:36.252Z,13.74
2019-04-11T11:32:46.431Z,13.80
2019-04-11T11:33:34.516Z,14.01
2019-04-11T11:34:44.611Z,13.99
2019-04-11T11:35:52.116Z,14.13
2019-04-11T11:37:11.704Z,14.12
2019-04-11T11:38:01.957Z,13.91
2019-04-11T11:39:02.508Z,13.77
2019-04-11T11:40:23.832Z,13.61
2019-04-11T11:41:18.600Z,13.52
2019-04-11T11:42:52.555Z,13.58
2019-04-11T11:43:48.392Z,13.73
2019-04-11T11:44:53.230Z,13.84
2019-04-11T11:45:41.556Z,13.83
2019-04-11T11:47:12.802Z,13.80
2019-04-11T11:48:09.944Z,13.79
2019-04-11T11:48:59.324Z,13.88
2019-04-11T11:50:21.624Z,13.83
2019-04-11T11:51:17.261Z,13.77
2019-04-11T11:52:43.990Z,13.88
2019-04-11T11:53:40.565Z,14.07
2019-04-11T11:54:59.784Z,14.12
2019-04-11T11:55:57.926Z,14.25
2019-04-11T11:56:29.695Z,14.21
2019-04-11T11:58:39.588Z,14.21
2019-04-11T11:59:30.190Z,14.25
2019-04-11T12:00:45.779Z,14.29
2019-04-11T12:01:49.751Z,14.25
2019-04-11T12:02:23.959Z,14.24
2019-04-11T12:03:40.349Z,14.20
2019-04-11T12:04:42.933Z,14.25
2019-04-11T12:05:46.257Z,14.31
2019-04-11T12:07:03.373Z,14.34
2019-04-11T12:07:56.125Z,14.35
2019-04-11T12:09:00.867Z,14.38
2019-04-11T12:10:06.890Z,14.27
2019-04-11T12:11:30.791Z,14.27
2019-04-11T12:12:32.943Z,14.24
2019-04-11T12:13:30.895Z,14.29
2019-04-11T12:14:22.306Z,14.29
2019-04-11T12:15:45.554Z,14.28
2019-04-11T12:16:36.666Z,14.20
2019-04-11T12:17:49.011Z,14.20
2019-04-11T12:18:51.690Z,14.21
2019-04-11T12:19:53.403Z,14.19
2019-04-11T12:21:11.407Z,14.12
2019-04-11T12:22:13.767Z,14.13
2019-04-11T12:23:22.669Z,14.13
2019-04-11T12:24:17.550Z,14.21
2019-04-11T12:25:25.045Z,14.12
2019-04-11T12:26:29.314Z,14.13
2019-04-11T12:27:43.622Z,14.02
2019-04-11T12:28:47.834Z,14.01
2019-04-11T12:29:45.570Z,14.02
2019-04-11T12:30:50.446Z,14.01
2019-04-11T12:31:55.796Z,14.02
2019-04-11T12:33:06.388Z,13.99
2019-04-11T12:34:21.939Z,13.99
2019-04-11T12:35:30.534Z,14.07
2019-04-11T12:36:21.088Z,14.14
2019-04-11T12:37:41.716Z,14.01
2019-04-11T12:38:24.514Z,14.07
2019-04-11T12:39:41.419Z,14.14
2019-04-11T12:40:36.510Z,14.24
2019-04-11T12:42:00.272Z,14.20
2019-04-11T12:43:07.041Z,14.28
2019-04-11T12:44:17.492Z,14.37
2019-04-11T12:45:08.288Z,14.37
2019-04-11T12:46:05.420Z,14.38
2019-04-11T12:47:16.590Z,14.31
2019-04-11T12:48:36.357Z,14.39
2019-04-11T12:49:38.210Z,14.34
2019-04-11T12:50:38.728Z,14.35
2019-04-11T12:51:45.698Z,14.42
2019-04-11T12:52:43.352Z,14.29
2019-04-11T12:53:46.021Z,14.25
2019-04-11T12:55:01.693Z,14.21
2019-04-11T12:55:58.325Z,14.12
2019-04-11T12:57:15.017Z,14.09
2019-04-11T12:58:13.702Z,14.10
2019-04-11T12:59:26.202Z,14.13
2019-04-11T13:00:32.040Z,14.21
2019-04-11T13:01:39.315Z,14.20
2019-04-11T13:02:35.027Z,14.06
2019-04-11T13:03:46.308Z,13.98
2019-04-11T13:04:47.937Z,13.91
2019-04-11T13:05:50.200Z,13.88
2019-04-11T13:07:11.914Z,13.81
2019-04-11T13:07:55.230Z,13.87
2019-04-11T13:09:21.143Z,13.77
2019-04-11T13:10:24.435Z,13.77
2019-04-11T13:11:22.079Z,13.74
2019-04-11T13:13:05.914Z,13.70
2019-04-11T13:13:36.123Z,13.83
2019-04-11T13:15:02.343Z,13.80
2019-04-11T13:16:11.358Z,13.83
2019-04-11T13:16:55.801Z,13.87
2019-04-11T13:18:20.998Z,13.69
2019-04-11T13:19:20.086Z,13.61
2019-04-11T13:20:13.746Z,13.61
2019-04-11T13:21:24.708Z,13.56
2019-04-11T13:22:39.154Z,13.62
2019-04-11T13:23:32.809Z,13.59
2019-04-11T13:24:37.945Z,13.74
2019-04-11T13:25:58.638Z,13.63
2019-04-11T13:27:02.833Z,13.70
2019-04-11T13:27:47.899Z,13.62
2019-04-11T13:29:00.495Z,13.58
2019-04-11T13:30:09.725Z,13.55
2019-04-11T13:31:07.166Z,13.54
2019-04-11T13:32:38.608Z,13.49
2019-04-11T13:33:08.715Z,13.55
2019-04-11T13:34:26.655Z,13.52
2019-04-11T13:35:23.682Z,13.54
2019-04-11T13:36:22.867Z,13.56
2019-04-11T13:37:46.935Z,13.59
2019-04-11T13:38:51.565Z,13.55
2019-04-11T13:39:48.690Z,13.59
2019-04-11T13:40:49.830Z,13.56
2019-04-11T13:41:54.948Z,13.52
2019-04-11T13:43:14.616Z,13.56
2019-04-11T13:44:21.390Z,13.54
2019-04-11T13:45:12.183Z,13.54
2019-04-11T13:46:20.488Z,13.47
2019-04-11T13:47:31.847Z,13.59
2019-04-11T13:48:28.986Z,13.52
2019-04-11T13:49:40.569Z,13.59
2019-04-11T13:50:42.518Z,13.65
2019-04-11T13:51:53.485Z,13.59
2019-04-11T13:52:58.714Z,13.59
2019-04-11T13:53:54.317Z,13.59
2019-04-11T13:55:19.209Z,13.65
2019-04-11T13:56:04.368Z,13.83
2019-04-11T13:57:17.276Z,13.83
2019-04-11T13:58:29.466Z,13.91
2019-04-11T13:59:22.306Z,13.91
2019-04-11T14:01:15.362Z,13.96
2019-04-11T14:02:14.445Z,13.99
2019-04-11T14:03:03.084Z,14.10
2019-04-11T14:04:20.292Z,14.07
2019-04-11T14:05:33.816Z,14.13
2019-04-11T14:06:15.597Z,14.07
2019-04-11T14:07:21.230Z,13.95
2019-04-11T14:08:19.203Z,13.91
2019-04-11T14:09:37.128Z,13.94
2019-04-11T14:10:31.606Z,13.94
2019-04-11T14:11:54.258Z,13.89
2019-04-11T14:13:27.931Z,13.88
2019-04-11T14:14:12.167Z,13.89
2019-04-11T14:15:25.490Z,13.99
2019-04-11T14:16:25.186Z,13.94
2019-04-11T14:17:48.745Z,13.92
2019-04-11T14:18:33.194Z,13.91
2019-04-11T14:20:08.825Z,13.94
2019-04-11T14:20:59.927Z,13.81
2019-04-11T14:22:07.103Z,13.80
2019-04-11T14:23:35.172Z,13.83
2019-04-11T14:24:35.073Z,13.79
2019-04-11T14:26:09.898Z,13.80
2019-04-11T14:26:34.063Z,13.79
2019-04-11T14:28:33.154Z,13.70
2019-04-11T14:29:37.161Z,13.77
2019-04-11T14:30:27.338Z,13.70
2019-04-11T14:31:21.832Z,13.71